Time;durP1;ratioP1;P1;durP2;ratioP2;P2;SDS_P1;SDS_P2;PMS_P1;PMS_P2;Temp;Humidity;BMP_temperature;BMP_pressure;BME280_temperature;BME280_humidity;BME280_pressure;Samples;Min_cycle;Max_cycle;Signal;HPM_P1;HPM_P2
2022/09/16 00:00:26;;;;;;;;;;;;;;;21.98;62.74;98693.44;4481770;31;33949;-66
2022/09/16 00:02:54;;;;;;;;;;;;;;;21.63;63.75;98697.25;4484537;31;35125;-65
2022/09/16 00:05:21;;;;;;;;;;;;;;;22.03;62.48;98697.19;4489085;31;32593;-66
2022/09/16 00:07:49;;;;;;;;;;;;;;;21.83;62.41;98697.25;4485656;31;34162;-65
2022/09/16 00:10:17;;;;;;;;;;;;;;;21.83;61.81;98691.81;4491596;31;33989;-66
2022/09/16 00:12:44;;;;;;;;;;;;;;;21.69;61.98;98694.75;4494808;31;34428;-66
2022/09/16 00:15:11;;;;;;;;;;;;;;;21.73;62.08;98699.53;4485929;32;34363;-66
2022/09/16 00:17:39;;;;;;;;;;;;;;;21.96;61.18;98715.44;4492538;31;33272;-66
2022/09/16 00:20:06;;;;;;;;;;;;;;;21.92;61.04;98718.78;4499035;31;34142;-65
2022/09/16 00:22:33;;;;;;;;;;;;;;;21.85;61.73;98718.81;4493951;31;35481;-65
2022/09/16 00:25:01;;;;;;;;;;;;;;;21.92;61.09;98699.72;4485711;31;34765;-66
2022/09/16 00:27:28;;;;;;;;;;;;;;;22.03;60.89;98696.38;4494419;31;33339;-65
2022/09/16 00:29:55;;;;;;;;;;;;;;;21.91;61.09;98704.34;4491432;31;34360;-64
2022/09/16 00:32:23;;;;;;;;;;;;;;;21.42;62.24;98702.94;4488488;31;34344;-65
2022/09/16 00:34:51;;;;;;;;;;;;;;;21.72;60.92;98710.66;4488607;31;33725;-65
2022/09/16 00:37:19;;;;;;;;;;;;;;;21.47;61.52;98716.75;4485299;31;33366;-64
2022/09/16 00:39:47;;;;;;;;;;;;;;;21.85;60.54;98711.47;4486516;31;34248;-65
2022/09/16 00:42:15;;;;;;;;;;;;;;;21.64;61.09;98722.63;4489956;31;35408;-65
2022/09/16 00:45:00;;;;;;;;;;;;;;;21.31;62.20;98733.47;4487551;31;33972;-64
2022/09/16 00:47:33;;;;;;;;;;;;;;;20.65;64.03;98726.88;4487449;31;33470;-64
2022/09/16 00:50:11;;;;;;;;;;;;;;;20.62;64.47;98745.47;4490983;31;32636;-64
2022/09/16 00:52:38;;;;;;;;;;;;;;;20.91;63.45;98750.56;4495736;31;35133;-64
2022/09/16 00:55:07;;;;;;;;;;;;;;;20.95;63.40;98742.84;4489837;31;33931;-64
2022/09/16 00:57:34;;;;;;;;;;;;;;;20.73;64.22;98736.72;4478450;32;31560;-64
2022/09/16 01:00:02;;;;;;;;;;;;;;;20.68;64.62;98736.50;4484916;31;33978;-64
2022/09/16 01:02:30;;;;;;;;;;;;;;;20.34;65.46;98734.66;4487749;31;34558;-64
2022/09/16 01:04:59;;;;;;;;;;;;;;;19.98;66.74;98727.56;4478597;31;36657;-64
2022/09/16 01:07:30;;;;;;;;;;;;;;;19.49;68.49;98723.03;4492717;31;33226;-64
2022/09/16 01:09:58;;;;;;;;;;;;;;;19.88;67.09;98721.66;4464595;32;32318;-65
2022/09/16 01:12:26;;;;;;;;;;;;;;;20.37;65.70;98732.38;4482100;31;32688;-64
2022/09/16 01:14:53;;;;;;;;;;;;;;;20.55;64.49;98725.59;4484340;31;34714;-64
2022/09/16 01:17:29;;;;;;;;;;;;;;;20.60;64.19;98736.66;4470925;32;33206;-65
2022/09/16 01:20:15;;;;;;;;;;;;;;;20.42;64.47;98743.47;4483428;31;33997;-64
2022/09/16 01:22:43;;;;;;;;;;;;;;;20.21;64.90;98752.56;4487939;31;34731;-63
2022/09/16 01:25:16;;;;;;;;;;;;;;;20.53;63.62;98757.56;4486796;31;35767;-64
2022/09/16 01:27:53;;;;;;;;;;;;;;;20.30;64.70;98747.81;4490157;31;33800;-64
2022/09/16 01:30:33;;;;;;;;;;;;;;;19.95;66.20;98757.84;4485055;31;34946;-64
2022/09/16 01:33:04;;;;;;;;;;;;;;;19.96;65.62;98756.78;4484113;31;34302;-64
2022/09/16 01:35:55;;;;;;;;;;;;;;;19.95;65.95;98749.69;4474921;31;33924;-64
2022/09/16 01:38:42;;;;;;;;;;;;;;;20.05;65.68;98742.03;4477297;31;33174;-64
2022/09/16 01:41:09;;;;;;;;;;;;;;;20.28;64.78;98746.31;4484561;31;34518;-65
2022/09/16 01:43:36;;;;;;;;;;;;;;;20.27;64.65;98745.50;4494285;31;33831;-65
2022/09/16 01:46:11;;;;;;;;;;;;;;;20.22;64.35;98737.97;4492476;31;34917;-65
2022/09/16 01:48:41;;;;;;;;;;;;;;;20.08;65.01;98748.94;4473357;31;33450;-64
2022/09/16 01:51:11;;;;;;;;;;;;;;;19.98;65.34;98752.00;4484381;31;33907;-65
2022/09/16 01:53:43;;;;;;;;;;;;;;;20.40;63.81;98742.81;4486360;31;33747;-65
2022/09/16 01:56:10;;;;;;;;;;;;;;;20.24;64.36;98741.28;4484271;31;33566;-65
2022/09/16 01:58:39;;;;;;;;;;;;;;;20.26;64.24;98741.09;4486615;31;31574;-64
2022/09/16 02:01:27;;;;;;;;;;;;;;;20.44;63.54;98737.81;4481459;31;35226;-64
2022/09/16 02:03:56;;;;;;;;;;;;;;;20.70;62.42;98728.97;4485998;31;33132;-64
2022/09/16 02:06:23;;;;;;;;;;;;;;;20.66;62.52;98733.97;4482055;31;33951;-64
2022/09/16 02:08:52;;;;;;;;;;;;;;;20.61;62.84;98733.75;4472092;31;33106;-64
2022/09/16 02:11:20;;;;;;;;;;;;;;;20.74;62.51;98738.41;4472528;32;34300;-64
2022/09/16 02:13:50;;;;;;;;;;;;;;;20.59;63.04;98748.59;4494360;31;34314;-64
2022/09/16 02:16:22;;;;;;;;;;;;;;;20.85;62.16;98745.13;4486269;31;33489;-64
2022/09/16 02:18:53;;;;;;;;;;;;;;;20.49;63.27;98751.66;4481692;31;33609;-65
2022/09/16 02:21:21;;;;;;;;;;;;;;;20.90;61.76;98753.50;4483382;31;34869;-66
2022/09/16 02:23:53;;;;;;;;;;;;;;;20.92;61.49;98751.41;4469257;32;35059;-66
2022/09/16 02:26:23;;;;;;;;;;;;;;;20.48;62.84;98764.41;4471196;31;34223;-66
2022/09/16 02:28:51;;;;;;;;;;;;;;;20.60;62.17;98763.84;4475443;32;33174;-66
2022/09/16 02:31:19;;;;;;;;;;;;;;;20.72;61.80;98762.22;4483070;31;34104;-65
2022/09/16 02:33:48;;;;;;;;;;;;;;;20.72;61.69;98770.38;4483167;31;33101;-65
2022/09/16 02:36:18;;;;;;;;;;;;;;;21.04;60.58;98770.69;4488429;31;32854;-64
2022/09/16 02:38:46;;;;;;;;;;;;;;;20.97;60.89;98773.41;4481776;31;33057;-64
2022/09/16 02:41:14;;;;;;;;;;;;;;;21.12;60.44;98770.50;4473243;31;34090;-64
2022/09/16 02:43:41;;;;;;;;;;;;;;;20.98;60.18;98779.69;4485305;31;35072;-64
2022/09/16 02:46:19;;;;;;;;;;;;;;;20.68;60.51;98778.12;4487965;31;33785;-63
2022/09/16 02:48:49;;;;;;;;;;;;;;;20.90;60.21;98776.09;4469524;31;32561;-64
2022/09/16 02:51:35;;;;;;;;;;;;;;;20.96;59.94;98777.16;4488314;31;33101;-63
2022/09/16 02:54:21;;;;;;;;;;;;;;;21.04;59.26;98784.28;4493506;31;35351;-64
2022/09/16 02:56:49;;;;;;;;;;;;;;;20.58;60.76;98780.38;4488703;31;34286;-64
2022/09/16 02:59:16;;;;;;;;;;;;;;;20.48;61.00;98779.84;4483487;31;32126;-65
2022/09/16 03:01:44;;;;;;;;;;;;;;;20.12;62.31;98783.63;4484937;31;33753;-65
2022/09/16 03:04:15;;;;;;;;;;;;;;;20.34;61.75;98778.97;4484408;31;33813;-65
2022/09/16 03:06:43;;;;;;;;;;;;;;;20.57;60.63;98777.84;4479434;32;33744;-65
2022/09/16 03:09:11;;;;;;;;;;;;;;;20.56;60.94;98784.34;4474440;31;33410;-65
2022/09/16 03:11:41;;;;;;;;;;;;;;;20.05;62.69;98785.47;4472791;31;34348;-65
2022/09/16 03:14:08;;;;;;;;;;;;;;;20.26;61.66;98779.16;4484402;31;34013;-65
2022/09/16 03:16:45;;;;;;;;;;;;;;;20.24;61.77;98779.31;4480523;31;34017;-65
2022/09/16 03:19:35;;;;;;;;;;;;;;;20.44;60.84;98782.16;4488270;31;33263;-64
2022/09/16 03:22:06;;;;;;;;;;;;;;;20.41;61.24;98787.16;4467989;31;33644;-65
2022/09/16 03:24:33;;;;;;;;;;;;;;;20.54;60.35;98789.97;4481904;31;34410;-65
2022/09/16 03:27:05;;;;;;;;;;;;;;;20.54;60.50;98800.00;4482613;31;33873;-65
2022/09/16 03:29:32;;;;;;;;;;;;;;;20.48;60.34;98788.87;4466723;31;32748;-62
2022/09/16 03:32:17;;;;;;;;;;;;;;;20.62;60.37;98789.81;4496671;31;34092;-64
2022/09/16 03:35:01;;;;;;;;;;;;;;;20.69;59.95;98795.25;4472650;31;34284;-63
2022/09/16 03:37:33;;;;;;;;;;;;;;;20.03;61.29;98784.81;4480112;31;34427;-64
2022/09/16 03:40:03;;;;;;;;;;;;;;;20.70;59.60;98780.63;4477599;32;34271;-63
2022/09/16 03:42:31;;;;;;;;;;;;;;;20.22;60.76;98788.72;4467652;31;34183;-65
2022/09/16 03:44:58;;;;;;;;;;;;;;;20.36;60.76;98804.06;4479858;31;33971;-64
2022/09/16 03:47:25;;;;;;;;;;;;;;;20.37;60.01;98804.91;4480750;31;33901;-63
2022/09/16 03:49:53;;;;;;;;;;;;;;;20.64;59.12;98801.31;4483387;31;33212;-64
2022/09/16 03:52:20;;;;;;;;;;;;;;;20.64;59.11;98800.47;4483124;31;32578;-64
2022/09/16 03:54:47;;;;;;;;;;;;;;;20.53;59.96;98801.03;4488088;31;35243;-63
2022/09/16 03:57:15;;;;;;;;;;;;;;;20.38;60.39;98804.69;4483017;31;35538;-63
2022/09/16 03:59:42;;;;;;;;;;;;;;;20.73;59.30;98801.12;4480934;31;33229;-64
2022/09/16 04:02:09;;;;;;;;;;;;;;;20.65;59.55;98811.16;4479839;31;32669;-64
2022/09/16 04:04:37;;;;;;;;;;;;;;;20.82;59.30;98802.63;4483331;31;32147;-64
2022/09/16 04:07:04;;;;;;;;;;;;;;;20.88;59.07;98813.53;4482806;31;33507;-64
2022/09/16 04:09:31;;;;;;;;;;;;;;;20.94;58.80;98806.44;4477886;31;33139;-64
2022/09/16 04:11:59;;;;;;;;;;;;;;;20.91;58.98;98807.69;4481902;31;32593;-64
2022/09/16 04:14:26;;;;;;;;;;;;;;;20.67;59.13;98803.63;4495373;31;34213;-62
2022/09/16 04:16:54;;;;;;;;;;;;;;;20.98;58.43;98794.09;4474120;31;33695;-63
2022/09/16 04:19:21;;;;;;;;;;;;;;;20.72;59.25;98797.56;4490834;31;32791;-63
2022/09/16 04:21:48;;;;;;;;;;;;;;;20.91;58.57;98802.25;4478822;31;32928;-63
2022/09/16 04:24:16;;;;;;;;;;;;;;;21.05;58.20;98802.28;4480255;32;34361;-63
2022/09/16 04:26:44;;;;;;;;;;;;;;;20.81;58.90;98809.97;4482871;31;34365;-63
2022/09/16 04:29:11;;;;;;;;;;;;;;;21.01;58.18;98812.75;4480083;31;33061;-64
2022/09/16 04:31:38;;;;;;;;;;;;;;;21.01;58.09;98806.47;4481715;31;32815;-63
2022/09/16 04:34:06;;;;;;;;;;;;;;;20.93;58.16;98813.78;4479613;31;33672;-64
2022/09/16 04:36:33;;;;;;;;;;;;;;;20.79;58.79;98811.19;4479183;31;32903;-64
2022/09/16 04:39:00;;;;;;;;;;;;;;;20.94;58.16;98809.16;4480535;31;33855;-63
2022/09/16 04:41:28;;;;;;;;;;;;;;;20.96;58.14;98815.22;4478653;31;33930;-64
2022/09/16 04:43:56;;;;;;;;;;;;;;;20.65;58.77;98816.59;4479630;31;37541;-63
2022/09/16 04:46:24;;;;;;;;;;;;;;;20.88;58.39;98820.88;4481752;31;35127;-64
2022/09/16 04:48:52;;;;;;;;;;;;;;;20.77;58.58;98816.00;4491387;31;33388;-63
2022/09/16 04:51:19;;;;;;;;;;;;;;;20.81;58.41;98811.84;4482753;31;32746;-63
2022/09/16 04:53:47;;;;;;;;;;;;;;;20.84;58.43;98806.84;4481680;31;33153;-63
2022/09/16 04:56:15;;;;;;;;;;;;;;;20.97;58.14;98813.38;4481813;31;34210;-63
2022/09/16 04:58:47;;;;;;;;;;;;;;;21.00;58.21;98818.41;4482544;31;33187;-64
2022/09/16 05:01:15;;;;;;;;;;;;;;;21.02;58.22;98819.00;4491534;31;34274;-63
2022/09/16 05:03:43;;;;;;;;;;;;;;;20.98;58.06;98826.75;4493871;31;33816;-63
2022/09/16 05:06:15;;;;;;;;;;;;;;;20.91;58.38;98810.41;4484498;31;35031;-63
2022/09/16 05:08:47;;;;;;;;;;;;;;;20.74;58.68;98802.78;4481414;31;32939;-64
2022/09/16 05:11:16;;;;;;;;;;;;;;;20.84;58.12;98808.72;4484444;31;35251;-63
2022/09/16 05:13:43;;;;;;;;;;;;;;;20.99;57.86;98822.97;4493411;31;34259;-64
2022/09/16 05:16:11;;;;;;;;;;;;;;;21.09;57.47;98819.87;4480728;31;34179;-64
2022/09/16 05:18:39;;;;;;;;;;;;;;;21.06;57.61;98834.75;4481181;31;32318;-64
2022/09/16 05:21:08;;;;;;;;;;;;;;;21.10;57.34;98822.41;4482860;31;34105;-63
2022/09/16 05:23:36;;;;;;;;;;;;;;;21.14;57.51;98820.09;4491950;31;34138;-62
2022/09/16 05:26:04;;;;;;;;;;;;;;;21.16;57.61;98829.75;4480374;31;36417;-62
2022/09/16 05:28:32;;;;;;;;;;;;;;;21.12;57.95;98838.50;4483272;31;31983;-63
2022/09/16 05:31:09;;;;;;;;;;;;;;;21.11;58.22;98845.00;4485887;31;34093;-62
2022/09/16 05:33:37;;;;;;;;;;;;;;;21.23;57.57;98848.81;4480932;31;33110;-64
2022/09/16 05:36:05;;;;;;;;;;;;;;;21.23;57.44;98839.81;4480180;31;35116;-63
2022/09/16 05:38:33;;;;;;;;;;;;;;;21.20;57.38;98835.63;4481828;31;33493;-62
2022/09/16 05:41:00;;;;;;;;;;;;;;;21.12;57.32;98842.09;4485280;31;35127;-64
2022/09/16 05:43:28;;;;;;;;;;;;;;;21.25;57.35;98843.16;4487474;31;34607;-65
2022/09/16 05:45:55;;;;;;;;;;;;;;;21.26;57.16;98844.84;4489776;31;33811;-65
2022/09/16 05:48:23;;;;;;;;;;;;;;;21.20;57.46;98846.50;4488060;31;33874;-65
2022/09/16 05:51:00;;;;;;;;;;;;;;;21.21;57.21;98850.06;4484232;31;35041;-64
2022/09/16 05:53:28;;;;;;;;;;;;;;;21.29;56.94;98841.72;4481072;31;33877;-65
2022/09/16 05:56:03;;;;;;;;;;;;;;;21.26;57.47;98831.25;4481247;31;34348;-65
2022/09/16 05:58:31;;;;;;;;;;;;;;;21.15;57.10;98822.63;4484878;31;32952;-65
2022/09/16 06:01:02;;;;;;;;;;;;;;;21.21;56.38;98828.28;4486969;31;33584;-64
2022/09/16 06:03:30;;;;;;;;;;;;;;;21.23;56.07;98845.25;4484650;31;34856;-64
2022/09/16 06:05:58;;;;;;;;;;;;;;;21.11;56.29;98842.28;4483623;31;33807;-65
2022/09/16 06:08:27;;;;;;;;;;;;;;;21.05;56.30;98834.94;4488043;31;34535;-65
2022/09/16 06:10:54;;;;;;;;;;;;;;;21.09;56.17;98842.50;4488631;31;35143;-64
2022/09/16 06:13:22;;;;;;;;;;;;;;;21.08;56.14;98848.97;4486061;31;34094;-65
2022/09/16 06:15:55;;;;;;;;;;;;;;;20.70;56.80;98849.44;4485214;31;33471;-65
2022/09/16 06:18:23;;;;;;;;;;;;;;;20.68;57.41;98837.94;4493769;31;34484;-65
2022/09/16 06:20:51;;;;;;;;;;;;;;;20.97;56.49;98843.28;4480559;31;35173;-66
2022/09/16 06:23:18;;;;;;;;;;;;;;;21.01;56.19;98842.66;4487452;31;34071;-63
2022/09/16 06:25:46;;;;;;;;;;;;;;;21.04;56.25;98852.31;4481632;31;35175;-63
2022/09/16 06:28:14;;;;;;;;;;;;;;;21.12;56.13;98841.22;4487440;31;33565;-64
2022/09/16 06:30:41;;;;;;;;;;;;;;;21.14;56.86;98844.59;4487395;31;34222;-64
2022/09/16 06:33:11;;;;;;;;;;;;;;;21.27;56.37;98846.50;4488906;31;32221;-63
2022/09/16 06:35:38;;;;;;;;;;;;;;;21.28;56.08;98843.56;4488252;31;33572;-64
2022/09/16 06:38:06;;;;;;;;;;;;;;;21.31;56.13;98832.28;4483285;31;33468;-63
2022/09/16 06:40:33;;;;;;;;;;;;;;;21.00;56.43;98846.44;4483488;31;32766;-64
2022/09/16 06:43:01;;;;;;;;;;;;;;;20.84;56.14;98844.06;4482537;31;32979;-64
2022/09/16 06:45:28;;;;;;;;;;;;;;;20.89;56.89;98847.00;4482185;31;32855;-64
2022/09/16 06:47:57;;;;;;;;;;;;;;;21.14;55.73;98845.44;4480122;31;32983;-64
2022/09/16 06:50:25;;;;;;;;;;;;;;;21.14;55.93;98848.16;4480907;31;33704;-64
2022/09/16 06:52:52;;;;;;;;;;;;;;;21.11;56.40;98843.13;4481522;31;34044;-63
2022/09/16 06:55:20;;;;;;;;;;;;;;;21.01;56.16;98842.66;4481162;31;35230;-64
2022/09/16 06:57:47;;;;;;;;;;;;;;;21.18;55.46;98837.69;4476359;31;33301;-64
2022/09/16 07:00:14;;;;;;;;;;;;;;;20.55;57.65;98843.31;4485446;31;35203;-64
2022/09/16 07:02:42;;;;;;;;;;;;;;;20.84;56.65;98847.63;4484556;31;34318;-64
2022/09/16 07:05:10;;;;;;;;;;;;;;;20.65;57.63;98851.09;4491310;31;34050;-63
2022/09/16 07:07:38;;;;;;;;;;;;;;;20.59;57.89;98860.06;4491210;31;34443;-64
2022/09/16 07:10:06;;;;;;;;;;;;;;;21.14;56.62;98859.03;4485774;31;35113;-65
2022/09/16 07:12:33;;;;;;;;;;;;;;;21.10;57.59;98862.38;4489487;31;33764;-64
2022/09/16 07:15:01;;;;;;;;;;;;;;;20.99;56.23;98858.34;4484637;31;34447;-64
2022/09/16 07:17:28;;;;;;;;;;;;;;;20.65;57.49;98870.12;4481142;31;33171;-62
2022/09/16 07:19:56;;;;;;;;;;;;;;;21.07;56.08;98871.78;4499164;31;32853;-63
2022/09/16 07:22:23;;;;;;;;;;;;;;;21.26;55.42;98869.34;4491474;31;32826;-64
2022/09/16 07:24:50;;;;;;;;;;;;;;;21.37;55.42;98868.75;4482787;31;32914;-63
2022/09/16 07:27:18;;;;;;;;;;;;;;;20.69;57.58;98869.50;4486891;31;33545;-64
2022/09/16 07:29:45;;;;;;;;;;;;;;;20.90;56.85;98874.03;4490468;31;34796;-64
2022/09/16 07:32:13;;;;;;;;;;;;;;;21.13;56.15;98875.56;4464044;31;830942;-64
2022/09/16 07:34:40;;;;;;;;;;;;;;;21.09;56.74;98877.88;4482737;31;34291;-63
2022/09/16 07:37:07;;;;;;;;;;;;;;;21.08;56.39;98883.50;4485743;31;32288;-63
2022/09/16 07:39:35;;;;;;;;;;;;;;;21.12;55.88;98879.31;4491930;31;34110;-62
2022/09/16 07:42:03;;;;;;;;;;;;;;;21.25;55.65;98887.56;4482244;31;34449;-63
2022/09/16 07:44:32;;;;;;;;;;;;;;;21.23;54.98;98888.78;4489229;31;31977;-62
2022/09/16 07:46:59;;;;;;;;;;;;;;;21.10;55.72;98886.88;4485279;31;33396;-63
2022/09/16 07:49:27;;;;;;;;;;;;;;;21.12;56.94;98895.63;4488450;31;32818;-63
2022/09/16 07:51:54;;;;;;;;;;;;;;;20.82;56.87;98905.97;4485381;31;35430;-63
2022/09/16 07:54:22;;;;;;;;;;;;;;;20.82;57.28;98904.09;4489782;31;35183;-63
2022/09/16 07:56:49;;;;;;;;;;;;;;;20.67;57.57;98897.94;4491169;31;34367;-63
2022/09/16 07:59:17;;;;;;;;;;;;;;;21.05;55.85;98903.78;4469216;31;32466;-63
2022/09/16 08:01:48;;;;;;;;;;;;;;;20.63;56.67;98897.50;4469135;31;33923;-63
2022/09/16 08:04:17;;;;;;;;;;;;;;;20.96;56.26;98907.72;4484384;31;35109;-63
2022/09/16 08:06:44;;;;;;;;;;;;;;;20.70;56.81;98902.97;4475423;31;33113;-63
2022/09/16 08:09:12;;;;;;;;;;;;;;;20.99;55.72;98909.19;4486957;31;34309;-63
2022/09/16 08:12:00;;;;;;;;;;;;;;;20.80;57.46;98906.19;4485116;31;35344;-63
2022/09/16 08:14:28;;;;;;;;;;;;;;;21.16;56.08;98913.25;4477741;31;33726;-64
2022/09/16 08:16:55;;;;;;;;;;;;;;;20.75;56.61;98916.81;4488140;31;33580;-63
2022/09/16 08:19:22;;;;;;;;;;;;;;;21.13;55.92;98908.22;4490078;31;34150;-63
2022/09/16 08:21:50;;;;;;;;;;;;;;;21.27;55.46;98909.94;4480469;31;34137;-63
2022/09/16 08:24:17;;;;;;;;;;;;;;;20.88;57.21;98908.72;4482848;31;34420;-64
2022/09/16 08:26:45;;;;;;;;;;;;;;;20.99;56.18;98904.59;4486226;31;34125;-64
2022/09/16 08:29:12;;;;;;;;;;;;;;;21.24;55.36;98896.75;4487899;31;35184;-64
2022/09/16 08:31:40;;;;;;;;;;;;;;;21.04;54.46;98906.72;4489233;31;34069;-64
2022/09/16 08:34:07;;;;;;;;;;;;;;;21.21;55.22;98899.88;4489214;31;35191;-64
2022/09/16 08:36:35;;;;;;;;;;;;;;;21.39;54.89;98886.56;4468072;31;33202;-64
2022/09/16 08:39:02;;;;;;;;;;;;;;;21.35;55.79;98893.47;4487760;31;35225;-63
2022/09/16 08:41:45;;;;;;;;;;;;;;;21.55;55.18;98909.84;4489575;31;33049;-64
2022/09/16 08:44:36;;;;;;;;;;;;;;;21.21;55.75;98908.03;4486484;31;34019;-71
2022/09/16 08:47:06;;;;;;;;;;;;;;;21.38;55.03;98908.56;4460133;31;33766;-67
2022/09/16 08:49:39;;;;;;;;;;;;;;;21.15;55.05;98900.69;4476558;31;33550;-67
2022/09/16 08:52:15;;;;;;;;;;;;;;;21.06;54.81;98899.16;4492085;31;34329;-66
2022/09/16 08:54:44;;;;;;;;;;;;;;;21.47;54.08;98892.88;4484648;31;34023;-64
2022/09/16 08:57:13;;;;;;;;;;;;;;;21.45;54.12;98905.84;4471444;31;33159;-63
2022/09/16 08:59:42;;;;;;;;;;;;;;;21.30;52.30;98919.59;4471452;31;31143;-63
2022/09/16 09:02:18;;;;;;;;;;;;;;;21.50;52.01;98927.84;4486242;31;35469;-63
2022/09/16 09:04:47;;;;;;;;;;;;;;;21.42;52.41;98926.16;4494541;31;34148;-62
2022/09/16 09:07:45;;;;;;;;;;;;;;;21.63;51.68;98925.16;4474794;31;34177;-65
2022/09/16 09:10:13;;;;;;;;;;;;;;;21.56;51.26;98927.84;4412790;31;33874;-65
2022/09/16 09:12:52;;;;;;;;;;;;;;;21.60;51.15;98920.97;4486155;31;34054;-64
2022/09/16 09:15:30;;;;;;;;;;;;;;;21.39;50.85;98913.78;4485882;31;34431;-65
2022/09/16 09:18:00;;;;;;;;;;;;;;;21.31;52.25;98903.03;4477348;32;31774;-65
2022/09/16 09:20:46;;;;;;;;;;;;;;;21.24;51.20;98898.63;4483439;31;34256;-65
2022/09/16 09:23:26;;;;;;;;;;;;;;;21.40;50.91;98901.00;4483410;31;33883;-66
2022/09/16 09:25:58;;;;;;;;;;;;;;;21.46;51.64;98899.34;4489033;31;33827;-63
2022/09/16 09:28:41;;;;;;;;;;;;;;;21.58;52.14;98892.28;4470526;31;32394;-64
2022/09/16 09:31:08;;;;;;;;;;;;;;;21.55;53.89;98893.53;4481337;31;34043;-65
2022/09/16 09:33:47;;;;;;;;;;;;;;;21.50;54.32;98901.44;4486259;31;33994;-66
2022/09/16 09:36:27;;;;;;;;;;;;;;;21.33;54.07;98895.53;4484074;31;34271;-65
2022/09/16 09:39:13;;;;;;;;;;;;;;;21.60;53.63;98901.91;4468516;32;34761;-65
2022/09/16 09:41:45;;;;;;;;;;;;;;;21.62;53.80;98901.69;4486951;31;34588;-66
2022/09/16 09:44:19;;;;;;;;;;;;;;;21.83;53.32;98904.25;4478832;31;35526;-65
2022/09/16 09:46:47;;;;;;;;;;;;;;;21.77;53.25;98913.25;4473874;31;32592;-64
2022/09/16 09:49:33;;;;;;;;;;;;;;;21.94;52.98;98907.41;4486591;31;31764;-65
2022/09/16 09:52:02;;;;;;;;;;;;;;;22.04;53.20;98903.22;4483412;31;35330;-65
2022/09/16 09:54:30;;;;;;;;;;;;;;;22.05;53.53;98898.59;4480075;31;32217;-65
2022/09/16 09:57:00;;;;;;;;;;;;;;;21.91;53.00;98891.47;4473669;32;34001;-65
2022/09/16 09:59:47;;;;;;;;;;;;;;;22.24;51.60;98888.78;4481279;31;33466;-65
2022/09/16 10:02:15;;;;;;;;;;;;;;;22.14;51.07;98880.16;4478124;31;33591;-64
2022/09/16 10:04:43;;;;;;;;;;;;;;;22.18;49.08;98871.38;4470364;31;33802;-64
2022/09/16 10:07:11;;;;;;;;;;;;;;;22.26;49.02;98873.06;4486215;31;35642;-65
2022/09/16 10:09:44;;;;;;;;;;;;;;;22.00;47.75;98880.16;4463815;32;32079;-64
2022/09/16 10:12:11;;;;;;;;;;;;;;;22.02;47.59;98880.81;4461762;31;32756;-64
2022/09/16 10:14:39;;;;;;;;;;;;;;;21.62;47.90;98882.63;4483998;31;33782;-65
2022/09/16 10:17:16;;;;;;;;;;;;;;;22.06;46.24;98887.50;4474690;32;32603;-65
2022/09/16 10:19:54;;;;;;;;;;;;;;;22.04;46.13;98888.75;4474185;32;33278;-65
2022/09/16 10:22:29;;;;;;;;;;;;;;;22.16;46.12;98880.81;4486191;31;34314;-65
2022/09/16 10:25:00;;;;;;;;;;;;;;;21.98;47.88;98887.69;4481511;31;33920;-64
2022/09/16 10:27:28;;;;;;;;;;;;;;;22.13;46.61;98884.78;4485628;31;33224;-64
2022/09/16 10:30:15;;;;;;;;;;;;;;;22.01;46.24;98886.44;4491010;31;33111;-64
2022/09/16 10:32:55;;;;;;;;;;;;;;;21.74;47.76;98888.31;4490929;31;33848;-64
2022/09/16 10:35:26;;;;;;;;;;;;;;;21.97;45.97;98879.75;4483370;31;34179;-64
2022/09/16 10:37:55;;;;;;;;;;;;;;;21.90;46.42;98878.91;4489274;31;34534;-64
2022/09/16 10:40:23;;;;;;;;;;;;;;;21.89;46.79;98872.59;4479429;31;33700;-64
2022/09/16 10:42:51;;;;;;;;;;;;;;;21.83;45.82;98877.00;4473197;31;32553;-65
2022/09/16 10:45:28;;;;;;;;;;;;;;;21.89;45.57;98883.50;4483915;31;32948;-64
2022/09/16 10:47:56;;;;;;;;;;;;;;;21.94;46.16;98881.00;4488114;31;33765;-64
2022/09/16 10:50:28;;;;;;;;;;;;;;;21.89;45.95;98872.59;4478470;31;34450;-65
2022/09/16 10:52:56;;;;;;;;;;;;;;;21.95;46.53;98885.38;4467699;32;32629;-65
2022/09/16 10:55:29;;;;;;;;;;;;;;;21.97;46.59;98886.03;4483887;31;34499;-65
2022/09/16 10:58:26;;;;;;;;;;;;;;;21.89;47.22;98888.94;4478199;31;32667;-64
2022/09/16 11:01:12;;;;;;;;;;;;;;;21.94;46.74;98891.06;4469854;31;33511;-64
2022/09/16 11:03:50;;;;;;;;;;;;;;;22.00;47.56;98895.69;4485217;31;32428;-64
2022/09/16 11:06:33;;;;;;;;;;;;;;;22.00;47.14;98898.41;4494023;31;35280;-64
2022/09/16 11:09:04;;;;;;;;;;;;;;;21.57;47.91;98899.59;4486206;31;34384;-63
2022/09/16 11:11:34;;;;;;;;;;;;;;;21.80;47.57;98899.22;4488841;31;33249;-63
2022/09/16 11:14:02;;;;;;;;;;;;;;;21.77;47.68;98890.63;4485948;31;32855;-64
2022/09/16 11:16:36;;;;;;;;;;;;;;;21.72;47.62;98890.41;4479791;31;34079;-63
2022/09/16 11:19:03;;;;;;;;;;;;;;;21.86;47.09;98884.78;4484780;31;32874;-63
2022/09/16 11:21:38;;;;;;;;;;;;;;;22.08;46.67;98892.72;4484632;31;33556;-64
2022/09/16 11:24:21;;;;;;;;;;;;;;;21.95;47.37;98884.56;4469237;31;33494;-64
2022/09/16 11:26:56;;;;;;;;;;;;;;;22.19;45.67;98872.22;4482497;31;34032;-63
2022/09/16 11:29:46;;;;;;;;;;;;;;;22.17;45.92;98864.25;4474093;31;33653;-63
2022/09/16 11:32:37;;;;;;;;;;;;;;;22.33;45.72;98865.69;4480070;31;33385;-63
2022/09/16 11:35:24;;;;;;;;;;;;;;;22.60;45.35;98857.47;4481731;31;36612;-64
2022/09/16 11:37:57;;;;;;;;;;;;;;;22.25;45.70;98855.03;4483073;31;36409;-65
2022/09/16 11:40:40;;;;;;;;;;;;;;;22.28;46.71;98860.91;4481533;31;35084;-64
2022/09/16 11:43:27;;;;;;;;;;;;;;;21.95;46.49;98858.13;4484663;31;32114;-64
2022/09/16 11:45:57;;;;;;;;;;;;;;;22.54;44.39;98853.72;4476435;31;33740;-64
2022/09/16 11:48:27;;;;;;;;;;;;;;;22.03;45.91;98849.78;4475110;31;35802;-64
2022/09/16 11:51:14;;;;;;;;;;;;;;;22.21;45.70;98853.75;4485674;31;34929;-64
2022/09/16 11:53:48;;;;;;;;;;;;;;;22.43;43.40;98847.00;4493801;31;32985;-64
2022/09/16 11:56:17;;;;;;;;;;;;;;;22.48;42.42;98840.94;4476838;31;34030;-64
2022/09/16 11:59:14;;;;;;;;;;;;;;;22.64;43.75;98839.62;4478096;31;34938;-64
2022/09/16 12:01:43;;;;;;;;;;;;;;;22.74;43.56;98848.19;4467860;31;32637;-63
2022/09/16 12:04:11;;;;;;;;;;;;;;;22.89;44.46;98847.91;4474129;32;31543;-63
2022/09/16 12:06:45;;;;;;;;;;;;;;;22.89;43.88;98840.59;4496406;31;33838;-64
2022/09/16 12:09:14;;;;;;;;;;;;;;;22.89;43.75;98835.13;4477499;32;34516;-64
2022/09/16 12:11:50;;;;;;;;;;;;;;;22.95;43.33;98834.31;4484458;31;34051;-64
2022/09/16 12:14:27;;;;;;;;;;;;;;;22.93;43.27;98830.09;4488701;31;34364;-64
2022/09/16 12:16:55;;;;;;;;;;;;;;;22.47;44.35;98836.50;4474457;31;32512;-64
2022/09/16 12:19:33;;;;;;;;;;;;;;;22.83;42.61;98840.63;4484318;31;34420;-63
2022/09/16 12:22:03;;;;;;;;;;;;;;;22.76;43.00;98836.03;4485853;31;34747;-64
2022/09/16 12:24:36;;;;;;;;;;;;;;;22.73;42.34;98835.63;4474864;31;33251;-64
2022/09/16 12:27:23;;;;;;;;;;;;;;;22.55;43.45;98828.94;4475789;31;35192;-64
2022/09/16 12:29:55;;;;;;;;;;;;;;;22.67;43.11;98825.56;4487596;31;33881;-64
2022/09/16 12:32:34;;;;;;;;;;;;;;;22.61;43.49;98835.44;4480097;31;32515;-64
2022/09/16 12:35:04;;;;;;;;;;;;;;;22.38;43.77;98833.19;4461213;31;31654;-64
2022/09/16 12:37:32;;;;;;;;;;;;;;;22.22;44.83;98836.38;4488311;31;33390;-64
2022/09/16 12:40:00;;;;;;;;;;;;;;;22.06;45.09;98819.37;4487796;31;34339;-64
2022/09/16 12:42:46;;;;;;;;;;;;;;;22.35;45.05;98821.88;4495357;31;34244;-64
2022/09/16 12:45:28;;;;;;;;;;;;;;;22.25;44.57;98823.16;4487139;31;33200;-64
2022/09/16 12:48:05;;;;;;;;;;;;;;;22.55;44.47;98811.75;4477038;31;32818;-64
2022/09/16 12:50:41;;;;;;;;;;;;;;;22.51;43.89;98815.97;4489980;31;34531;-64
2022/09/16 12:53:11;;;;;;;;;;;;;;;22.68;44.93;98805.41;4470198;31;34881;-64
2022/09/16 12:55:42;;;;;;;;;;;;;;;22.86;43.91;98805.56;4494932;31;32788;-63
2022/09/16 12:58:16;;;;;;;;;;;;;;;22.74;44.03;98801.84;4490877;31;34465;-64
2022/09/16 13:00:52;;;;;;;;;;;;;;;22.39;43.77;98799.44;4499835;31;34438;-64
2022/09/16 13:03:21;;;;;;;;;;;;;;;22.24;44.73;98804.28;4478472;31;33694;-63
2022/09/16 13:05:49;;;;;;;;;;;;;;;22.46;45.40;98794.78;4482889;31;33029;-63
2022/09/16 13:08:16;;;;;;;;;;;;;;;21.68;45.63;98800.12;4471857;31;32956;-63